sensor_id;sensor_type;location;lat;lon;timestamp;P1;durP1;ratioP1;P2;durP2;ratioP2
23814;SDS011;12088;53.078;8.720;2024-02-21T00:00:04;37.97;;;17.50;;
23814;SDS011;12088;53.078;8.720;2024-02-21T00:02:30;32.50;;;17.87;;
23814;SDS011;12088;53.078;8.720;2024-02-21T00:04:59;40.33;;;17.60;;
23814;SDS011;12088;53.078;8.720;2024-02-21T00:07:28;31.17;;;16.33;;
23814;SDS011;12088;53.078;8.720;2024-02-21T00:09:54;43.63;;;18.53;;
23814;SDS011;12088;53.078;8.720;2024-02-21T00:12:20;33.20;;;17.33;;
23814;SDS011;12088;53.078;8.720;2024-02-21T00:14:46;32.53;;;18.20;;
23814;SDS011;12088;53.078;8.720;2024-02-21T00:17:12;40.80;;;19.37;;
23814;SDS011;12088;53.078;8.720;2024-02-21T00:19:41;42.47;;;19.77;;
23814;SDS011;12088;53.078;8.720;2024-02-21T00:22:07;43.40;;;20.80;;
23814;SDS011;12088;53.078;8.720;2024-02-21T00:24:36;42.43;;;20.50;;
23814;SDS011;12088;53.078;8.720;2024-02-21T00:27:02;42.03;;;21.20;;
23814;SDS011;12088;53.078;8.720;2024-02-21T00:29:28;42.27;;;21.23;;
23814;SDS011;12088;53.078;8.720;2024-02-21T00:31:54;37.07;;;20.97;;
23814;SDS011;12088;53.078;8.720;2024-02-21T00:34:20;47.30;;;23.27;;
23814;SDS011;12088;53.078;8.720;2024-02-21T00:36:46;41.73;;;21.67;;
23814;SDS011;12088;53.078;8.720;2024-02-21T00:39:12;46.00;;;22.70;;
23814;SDS011;12088;53.078;8.720;2024-02-21T00:41:38;48.80;;;22.47;;
23814;SDS011;12088;53.078;8.720;2024-02-21T00:44:04;43.43;;;22.50;;
23814;SDS011;12088;53.078;8.720;2024-02-21T00:46:31;40.53;;;21.90;;
23814;SDS011;12088;53.078;8.720;2024-02-21T00:48:57;41.77;;;21.97;;
23814;SDS011;12088;53.078;8.720;2024-02-21T00:51:23;39.80;;;21.23;;
23814;SDS011;12088;53.078;8.720;2024-02-21T00:53:49;40.80;;;21.10;;
23814;SDS011;12088;53.078;8.720;2024-02-21T00:56:16;46.07;;;20.97;;
23814;SDS011;12088;53.078;8.720;2024-02-21T00:58:42;49.00;;;22.50;;
23814;SDS011;12088;53.078;8.720;2024-02-21T01:01:08;44.63;;;20.70;;
23814;SDS011;12088;53.078;8.720;2024-02-21T01:03:34;40.37;;;20.63;;
23814;SDS011;12088;53.078;8.720;2024-02-21T01:06:00;42.07;;;21.23;;
23814;SDS011;12088;53.078;8.720;2024-02-21T01:08:26;46.67;;;20.63;;
23814;SDS011;12088;53.078;8.720;2024-02-21T01:10:52;42.77;;;21.47;;
23814;SDS011;12088;53.078;8.720;2024-02-21T01:13:18;39.87;;;20.70;;
23814;SDS011;12088;53.078;8.720;2024-02-21T01:15:43;40.00;;;20.27;;
23814;SDS011;12088;53.078;8.720;2024-02-21T01:18:09;48.40;;;20.83;;
23814;SDS011;12088;53.078;8.720;2024-02-21T01:20:35;44.43;;;21.07;;
23814;SDS011;12088;53.078;8.720;2024-02-21T01:23:01;41.10;;;20.67;;
23814;SDS011;12088;53.078;8.720;2024-02-21T01:25:27;41.30;;;20.30;;
23814;SDS011;12088;53.078;8.720;2024-02-21T01:27:53;43.60;;;21.37;;
23814;SDS011;12088;53.078;8.720;2024-02-21T01:30:19;41.37;;;19.77;;
23814;SDS011;12088;53.078;8.720;2024-02-21T01:32:45;40.53;;;22.10;;
23814;SDS011;12088;53.078;8.720;2024-02-21T01:35:11;44.80;;;21.90;;
23814;SDS011;12088;53.078;8.720;2024-02-21T01:37:37;40.33;;;20.87;;
23814;SDS011;12088;53.078;8.720;2024-02-21T01:40:03;41.70;;;21.17;;
23814;SDS011;12088;53.078;8.720;2024-02-21T01:42:29;38.80;;;19.20;;
23814;SDS011;12088;53.078;8.720;2024-02-21T01:44:55;47.87;;;20.60;;
23814;SDS011;12088;53.078;8.720;2024-02-21T01:47:21;40.50;;;20.60;;
23814;SDS011;12088;53.078;8.720;2024-02-21T01:49:47;45.90;;;21.30;;
23814;SDS011;12088;53.078;8.720;2024-02-21T01:52:14;39.47;;;21.03;;
23814;SDS011;12088;53.078;8.720;2024-02-21T01:54:40;38.73;;;20.17;;
23814;SDS011;12088;53.078;8.720;2024-02-21T01:57:06;38.53;;;19.17;;
23814;SDS011;12088;53.078;8.720;2024-02-21T01:59:33;45.17;;;21.00;;
23814;SDS011;12088;53.078;8.720;2024-02-21T02:02:00;44.57;;;19.80;;
23814;SDS011;12088;53.078;8.720;2024-02-21T02:04:26;38.10;;;19.47;;
23814;SDS011;12088;53.078;8.720;2024-02-21T02:06:54;38.67;;;19.43;;
23814;SDS011;12088;53.078;8.720;2024-02-21T02:09:20;43.30;;;20.90;;
23814;SDS011;12088;53.078;8.720;2024-02-21T02:11:46;43.83;;;21.17;;
23814;SDS011;12088;53.078;8.720;2024-02-21T02:14:12;41.23;;;19.47;;
23814;SDS011;12088;53.078;8.720;2024-02-21T02:16:38;42.00;;;18.97;;
23814;SDS011;12088;53.078;8.720;2024-02-21T02:19:04;43.47;;;19.27;;
23814;SDS011;12088;53.078;8.720;2024-02-21T02:21:32;38.93;;;19.63;;
23814;SDS011;12088;53.078;8.720;2024-02-21T02:23:58;35.03;;;18.03;;
23814;SDS011;12088;53.078;8.720;2024-02-21T02:26:24;36.33;;;19.77;;
23814;SDS011;12088;53.078;8.720;2024-02-21T02:28:50;35.90;;;19.30;;
23814;SDS011;12088;53.078;8.720;2024-02-21T02:31:16;41.70;;;19.37;;
23814;SDS011;12088;53.078;8.720;2024-02-21T02:33:42;48.27;;;21.00;;
23814;SDS011;12088;53.078;8.720;2024-02-21T02:36:09;32.60;;;18.83;;
23814;SDS011;12088;53.078;8.720;2024-02-21T02:38:35;36.80;;;19.13;;
23814;SDS011;12088;53.078;8.720;2024-02-21T02:41:01;35.40;;;18.57;;
23814;SDS011;12088;53.078;8.720;2024-02-21T02:43:27;35.27;;;17.93;;
23814;SDS011;12088;53.078;8.720;2024-02-21T02:45:53;39.77;;;18.43;;
23814;SDS011;12088;53.078;8.720;2024-02-21T02:48:20;39.87;;;18.80;;
23814;SDS011;12088;53.078;8.720;2024-02-21T02:50:46;37.83;;;19.67;;
23814;SDS011;12088;53.078;8.720;2024-02-21T02:53:12;43.97;;;19.63;;
23814;SDS011;12088;53.078;8.720;2024-02-21T02:55:38;36.40;;;18.17;;
23814;SDS011;12088;53.078;8.720;2024-02-21T02:58:04;38.50;;;18.13;;
23814;SDS011;12088;53.078;8.720;2024-02-21T03:00:30;32.70;;;17.50;;
23814;SDS011;12088;53.078;8.720;2024-02-21T03:02:56;36.73;;;18.20;;
23814;SDS011;12088;53.078;8.720;2024-02-21T03:05:22;40.10;;;19.30;;
23814;SDS011;12088;53.078;8.720;2024-02-21T03:07:48;39.07;;;17.87;;
23814;SDS011;12088;53.078;8.720;2024-02-21T03:10:14;40.50;;;18.77;;
23814;SDS011;12088;53.078;8.720;2024-02-21T03:12:43;43.80;;;19.13;;
23814;SDS011;12088;53.078;8.720;2024-02-21T03:15:10;34.70;;;17.33;;
23814;SDS011;12088;53.078;8.720;2024-02-21T03:17:36;33.87;;;17.60;;
23814;SDS011;12088;53.078;8.720;2024-02-21T03:20:02;44.30;;;19.27;;
23814;SDS011;12088;53.078;8.720;2024-02-21T03:22:34;36.10;;;19.83;;
23814;SDS011;12088;53.078;8.720;2024-02-21T03:25:00;38.60;;;18.83;;
23814;SDS011;12088;53.078;8.720;2024-02-21T03:27:26;33.57;;;18.53;;
23814;SDS011;12088;53.078;8.720;2024-02-21T03:29:53;36.37;;;18.73;;
23814;SDS011;12088;53.078;8.720;2024-02-21T03:32:19;40.53;;;19.90;;
23814;SDS011;12088;53.078;8.720;2024-02-21T03:34:45;37.77;;;19.57;;
23814;SDS011;12088;53.078;8.720;2024-02-21T03:37:11;39.87;;;19.47;;
23814;SDS011;12088;53.078;8.720;2024-02-21T03:39:38;36.83;;;18.60;;
23814;SDS011;12088;53.078;8.720;2024-02-21T03:42:04;38.53;;;19.33;;
23814;SDS011;12088;53.078;8.720;2024-02-21T03:44:31;47.23;;;22.87;;
23814;SDS011;12088;53.078;8.720;2024-02-21T03:46:58;51.13;;;23.30;;
23814;SDS011;12088;53.078;8.720;2024-02-21T03:49:25;49.53;;;22.67;;
23814;SDS011;12088;53.078;8.720;2024-02-21T03:51:51;53.23;;;23.63;;
23814;SDS011;12088;53.078;8.720;2024-02-21T03:54:17;52.60;;;22.37;;
23814;SDS011;12088;53.078;8.720;2024-02-21T03:56:43;51.77;;;23.53;;
23814;SDS011;12088;53.078;8.720;2024-02-21T03:59:09;54.03;;;22.40;;
23814;SDS011;12088;53.078;8.720;2024-02-21T04:01:35;52.00;;;23.87;;
23814;SDS011;12088;53.078;8.720;2024-02-21T04:04:01;48.63;;;22.47;;
23814;SDS011;12088;53.078;8.720;2024-02-21T04:06:27;51.13;;;22.43;;
23814;SDS011;12088;53.078;8.720;2024-02-21T04:08:53;51.47;;;23.53;;
23814;SDS011;12088;53.078;8.720;2024-02-21T04:11:20;52.63;;;24.33;;
23814;SDS011;12088;53.078;8.720;2024-02-21T04:13:46;49.13;;;23.87;;
23814;SDS011;12088;53.078;8.720;2024-02-21T04:16:13;46.63;;;22.80;;
23814;SDS011;12088;53.078;8.720;2024-02-21T04:18:40;50.87;;;21.07;;
23814;SDS011;12088;53.078;8.720;2024-02-21T04:21:06;52.10;;;22.80;;
23814;SDS011;12088;53.078;8.720;2024-02-21T04:23:32;41.97;;;20.03;;
23814;SDS011;12088;53.078;8.720;2024-02-21T04:25:58;51.23;;;23.17;;
23814;SDS011;12088;53.078;8.720;2024-02-21T04:28:24;49.07;;;22.53;;
23814;SDS011;12088;53.078;8.720;2024-02-21T04:30:50;46.20;;;21.93;;
23814;SDS011;12088;53.078;8.720;2024-02-21T04:33:16;49.77;;;21.97;;
23814;SDS011;12088;53.078;8.720;2024-02-21T04:35:42;41.43;;;20.67;;
23814;SDS011;12088;53.078;8.720;2024-02-21T04:38:08;39.77;;;19.70;;
23814;SDS011;12088;53.078;8.720;2024-02-21T04:40:34;43.67;;;21.30;;
23814;SDS011;12088;53.078;8.720;2024-02-21T04:43:00;39.80;;;20.20;;
23814;SDS011;12088;53.078;8.720;2024-02-21T04:45:26;42.80;;;20.83;;
23814;SDS011;12088;53.078;8.720;2024-02-21T04:47:52;43.77;;;20.00;;
23814;SDS011;12088;53.078;8.720;2024-02-21T04:50:18;45.03;;;20.80;;
23814;SDS011;12088;53.078;8.720;2024-02-21T04:52:44;50.10;;;20.87;;
23814;SDS011;12088;53.078;8.720;2024-02-21T04:55:10;43.37;;;20.30;;
23814;SDS011;12088;53.078;8.720;2024-02-21T04:57:36;41.40;;;19.07;;
23814;SDS011;12088;53.078;8.720;2024-02-21T05:00:02;41.63;;;18.60;;
23814;SDS011;12088;53.078;8.720;2024-02-21T05:02:28;40.97;;;19.30;;
23814;SDS011;12088;53.078;8.720;2024-02-21T05:04:55;44.03;;;19.90;;
23814;SDS011;12088;53.078;8.720;2024-02-21T05:07:21;38.13;;;18.73;;
23814;SDS011;12088;53.078;8.720;2024-02-21T05:09:47;37.43;;;18.27;;
23814;SDS011;12088;53.078;8.720;2024-02-21T05:12:13;34.40;;;16.50;;
23814;SDS011;12088;53.078;8.720;2024-02-21T05:14:39;33.60;;;17.27;;
23814;SDS011;12088;53.078;8.720;2024-02-21T05:17:05;37.20;;;18.37;;
23814;SDS011;12088;53.078;8.720;2024-02-21T05:19:31;30.33;;;16.07;;
23814;SDS011;12088;53.078;8.720;2024-02-21T05:21:58;36.57;;;17.90;;
23814;SDS011;12088;53.078;8.720;2024-02-21T05:24:24;38.63;;;18.07;;
23814;SDS011;12088;53.078;8.720;2024-02-21T05:26:50;33.07;;;16.90;;
23814;SDS011;12088;53.078;8.720;2024-02-21T05:29:16;33.13;;;16.33;;
23814;SDS011;12088;53.078;8.720;2024-02-21T05:34:18;28.53;;;14.97;;
23814;SDS011;12088;53.078;8.720;2024-02-21T05:36:44;26.90;;;14.70;;
23814;SDS011;12088;53.078;8.720;2024-02-21T05:39:10;28.87;;;14.90;;
23814;SDS011;12088;53.078;8.720;2024-02-21T05:41:36;30.57;;;16.27;;
23814;SDS011;12088;53.078;8.720;2024-02-21T05:44:02;28.83;;;16.50;;
23814;SDS011;12088;53.078;8.720;2024-02-21T05:46:28;29.07;;;15.73;;
23814;SDS011;12088;53.078;8.720;2024-02-21T05:48:54;29.73;;;15.80;;
23814;SDS011;12088;53.078;8.720;2024-02-21T05:51:20;28.83;;;14.57;;
23814;SDS011;12088;53.078;8.720;2024-02-21T05:53:46;26.70;;;15.23;;
23814;SDS011;12088;53.078;8.720;2024-02-21T05:56:13;29.07;;;14.30;;
23814;SDS011;12088;53.078;8.720;2024-02-21T05:58:39;28.83;;;14.77;;
23814;SDS011;12088;53.078;8.720;2024-02-21T06:01:05;26.93;;;15.10;;
23814;SDS011;12088;53.078;8.720;2024-02-21T06:03:32;26.97;;;14.40;;
23814;SDS011;12088;53.078;8.720;2024-02-21T06:05:58;30.37;;;14.97;;
23814;SDS011;12088;53.078;8.720;2024-02-21T06:08:24;31.73;;;16.20;;
23814;SDS011;12088;53.078;8.720;2024-02-21T06:10:50;32.93;;;16.10;;
23814;SDS011;12088;53.078;8.720;2024-02-21T06:13:26;32.60;;;17.00;;
23814;SDS011;12088;53.078;8.720;2024-02-21T06:15:52;26.90;;;15.43;;
23814;SDS011;12088;53.078;8.720;2024-02-21T06:18:18;28.17;;;15.77;;
23814;SDS011;12088;53.078;8.720;2024-02-21T06:20:44;28.77;;;16.40;;
23814;SDS011;12088;53.078;8.720;2024-02-21T06:23:11;28.50;;;15.27;;
23814;SDS011;12088;53.078;8.720;2024-02-21T06:25:37;28.70;;;15.57;;
23814;SDS011;12088;53.078;8.720;2024-02-21T06:28:03;29.00;;;16.53;;
23814;SDS011;12088;53.078;8.720;2024-02-21T06:30:29;30.13;;;16.40;;
23814;SDS011;12088;53.078;8.720;2024-02-21T06:32:55;36.73;;;17.33;;
23814;SDS011;12088;53.078;8.720;2024-02-21T06:35:22;29.43;;;16.57;;
23814;SDS011;12088;53.078;8.720;2024-02-21T06:37:51;28.20;;;15.93;;
23814;SDS011;12088;53.078;8.720;2024-02-21T06:40:17;30.77;;;16.40;;
23814;SDS011;12088;53.078;8.720;2024-02-21T06:42:43;32.40;;;17.70;;
23814;SDS011;12088;53.078;8.720;2024-02-21T06:45:09;30.60;;;16.73;;
23814;SDS011;12088;53.078;8.720;2024-02-21T06:47:35;34.33;;;16.93;;
23814;SDS011;12088;53.078;8.720;2024-02-21T06:50:01;34.90;;;18.60;;
23814;SDS011;12088;53.078;8.720;2024-02-21T06:52:27;40.40;;;18.23;;
23814;SDS011;12088;53.078;8.720;2024-02-21T06:54:53;34.33;;;19.10;;
23814;SDS011;12088;53.078;8.720;2024-02-21T06:57:19;40.43;;;19.80;;
23814;SDS011;12088;53.078;8.720;2024-02-21T06:59:45;37.13;;;18.87;;
23814;SDS011;12088;53.078;8.720;2024-02-21T07:02:11;40.20;;;19.33;;
23814;SDS011;12088;53.078;8.720;2024-02-21T07:04:37;32.00;;;18.27;;
23814;SDS011;12088;53.078;8.720;2024-02-21T07:07:03;35.53;;;18.77;;
23814;SDS011;12088;53.078;8.720;2024-02-21T07:09:29;42.40;;;19.47;;
23814;SDS011;12088;53.078;8.720;2024-02-21T07:11:57;40.47;;;19.03;;
23814;SDS011;12088;53.078;8.720;2024-02-21T07:14:23;40.67;;;19.63;;
23814;SDS011;12088;53.078;8.720;2024-02-21T07:16:49;44.03;;;21.30;;
23814;SDS011;12088;53.078;8.720;2024-02-21T07:19:15;43.37;;;19.80;;
23814;SDS011;12088;53.078;8.720;2024-02-21T07:21:41;37.20;;;19.00;;
23814;SDS011;12088;53.078;8.720;2024-02-21T07:24:07;39.40;;;19.97;;
23814;SDS011;12088;53.078;8.720;2024-02-21T07:26:33;44.03;;;20.13;;
23814;SDS011;12088;53.078;8.720;2024-02-21T07:28:59;43.33;;;20.60;;
23814;SDS011;12088;53.078;8.720;2024-02-21T07:31:25;35.37;;;19.87;;
23814;SDS011;12088;53.078;8.720;2024-02-21T07:33:51;42.23;;;21.03;;
23814;SDS011;12088;53.078;8.720;2024-02-21T07:36:27;44.53;;;21.43;;
23814;SDS011;12088;53.078;8.720;2024-02-21T07:38:53;43.07;;;20.17;;
23814;SDS011;12088;53.078;8.720;2024-02-21T07:41:20;38.43;;;21.03;;
23814;SDS011;12088;53.078;8.720;2024-02-21T07:43:46;44.73;;;21.30;;
23814;SDS011;12088;53.078;8.720;2024-02-21T07:46:13;45.30;;;21.60;;
23814;SDS011;12088;53.078;8.720;2024-02-21T07:48:39;51.30;;;23.40;;
23814;SDS011;12088;53.078;8.720;2024-02-21T07:51:05;48.53;;;23.93;;
23814;SDS011;12088;53.078;8.720;2024-02-21T07:53:31;54.37;;;25.40;;
23814;SDS011;12088;53.078;8.720;2024-02-21T07:55:57;61.77;;;25.77;;
23814;SDS011;12088;53.078;8.720;2024-02-21T07:58:23;57.10;;;25.53;;
23814;SDS011;12088;53.078;8.720;2024-02-21T08:00:50;58.17;;;26.53;;
23814;SDS011;12088;53.078;8.720;2024-02-21T08:03:16;56.53;;;25.70;;
23814;SDS011;12088;53.078;8.720;2024-02-21T08:05:42;48.90;;;23.77;;
23814;SDS011;12088;53.078;8.720;2024-02-21T08:08:08;58.93;;;25.67;;
23814;SDS011;12088;53.078;8.720;2024-02-21T08:10:35;47.93;;;25.00;;
23814;SDS011;12088;53.078;8.720;2024-02-21T08:13:01;56.87;;;24.83;;
23814;SDS011;12088;53.078;8.720;2024-02-21T08:15:27;56.70;;;24.87;;
23814;SDS011;12088;53.078;8.720;2024-02-21T08:17:55;54.07;;;25.83;;
23814;SDS011;12088;53.078;8.720;2024-02-21T08:20:24;52.23;;;26.33;;
23814;SDS011;12088;53.078;8.720;2024-02-21T08:22:50;48.67;;;24.77;;
23814;SDS011;12088;53.078;8.720;2024-02-21T08:25:16;45.53;;;23.10;;
23814;SDS011;12088;53.078;8.720;2024-02-21T08:28:09;52.33;;;23.90;;
23814;SDS011;12088;53.078;8.720;2024-02-21T08:30:38;48.57;;;24.63;;
23814;SDS011;12088;53.078;8.720;2024-02-21T08:33:07;49.30;;;23.67;;
23814;SDS011;12088;53.078;8.720;2024-02-21T08:35:36;56.13;;;24.57;;
23814;SDS011;12088;53.078;8.720;2024-02-21T08:38:02;48.87;;;21.67;;
23814;SDS011;12088;53.078;8.720;2024-02-21T08:40:28;50.13;;;22.40;;
23814;SDS011;12088;53.078;8.720;2024-02-21T08:42:54;46.07;;;22.07;;
23814;SDS011;12088;53.078;8.720;2024-02-21T08:45:20;50.47;;;23.40;;
23814;SDS011;12088;53.078;8.720;2024-02-21T08:47:46;44.40;;;21.53;;
23814;SDS011;12088;53.078;8.720;2024-02-21T08:50:12;50.13;;;22.23;;
23814;SDS011;12088;53.078;8.720;2024-02-21T08:52:38;46.17;;;21.97;;
23814;SDS011;12088;53.078;8.720;2024-02-21T08:55:04;46.73;;;23.13;;
23814;SDS011;12088;53.078;8.720;2024-02-21T08:57:30;42.47;;;21.93;;
23814;SDS011;12088;53.078;8.720;2024-02-21T09:00:01;43.13;;;21.47;;
23814;SDS011;12088;53.078;8.720;2024-02-21T09:02:31;42.87;;;20.30;;
23814;SDS011;12088;53.078;8.720;2024-02-21T09:04:57;45.33;;;20.37;;
23814;SDS011;12088;53.078;8.720;2024-02-21T09:07:23;45.23;;;20.97;;
23814;SDS011;12088;53.078;8.720;2024-02-21T09:09:49;40.73;;;20.03;;
23814;SDS011;12088;53.078;8.720;2024-02-21T09:12:24;42.40;;;20.27;;
23814;SDS011;12088;53.078;8.720;2024-02-21T09:14:50;37.03;;;19.03;;
23814;SDS011;12088;53.078;8.720;2024-02-21T09:17:16;44.30;;;19.40;;
23814;SDS011;12088;53.078;8.720;2024-02-21T09:19:43;44.47;;;20.60;;
23814;SDS011;12088;53.078;8.720;2024-02-21T09:22:09;45.00;;;20.87;;
23814;SDS011;12088;53.078;8.720;2024-02-21T09:24:38;37.00;;;18.90;;
23814;SDS011;12088;53.078;8.720;2024-02-21T09:27:07;40.33;;;19.07;;
23814;SDS011;12088;53.078;8.720;2024-02-21T09:29:42;39.03;;;19.07;;
23814;SDS011;12088;53.078;8.720;2024-02-21T09:32:09;37.97;;;18.67;;
23814;SDS011;12088;53.078;8.720;2024-02-21T09:34:38;39.77;;;18.87;;
23814;SDS011;12088;53.078;8.720;2024-02-21T09:37:04;36.80;;;18.07;;
23814;SDS011;12088;53.078;8.720;2024-02-21T09:39:30;37.80;;;17.93;;
23814;SDS011;12088;53.078;8.720;2024-02-21T09:41:59;36.33;;;17.33;;
23814;SDS011;12088;53.078;8.720;2024-02-21T09:44:26;41.73;;;17.77;;
23814;SDS011;12088;53.078;8.720;2024-02-21T09:47:03;34.53;;;15.83;;
23814;SDS011;12088;53.078;8.720;2024-02-21T09:49:33;34.53;;;17.77;;
23814;SDS011;12088;53.078;8.720;2024-02-21T09:52:03;35.77;;;17.73;;
23814;SDS011;12088;53.078;8.720;2024-02-21T09:54:29;32.00;;;16.37;;
23814;SDS011;12088;53.078;8.720;2024-02-21T09:57:02;33.43;;;16.73;;
23814;SDS011;12088;53.078;8.720;2024-02-21T09:59:28;30.13;;;16.17;;
23814;SDS011;12088;53.078;8.720;2024-02-21T10:01:54;33.80;;;16.43;;
23814;SDS011;12088;53.078;8.720;2024-02-21T10:04:20;25.13;;;15.03;;
23814;SDS011;12088;53.078;8.720;2024-02-21T10:06:46;29.17;;;15.00;;
23814;SDS011;12088;53.078;8.720;2024-02-21T10:09:22;31.70;;;15.53;;
23814;SDS011;12088;53.078;8.720;2024-02-21T10:11:49;28.50;;;14.50;;
23814;SDS011;12088;53.078;8.720;2024-02-21T10:14:16;29.50;;;14.80;;
23814;SDS011;12088;53.078;8.720;2024-02-21T10:16:43;28.13;;;15.20;;
23814;SDS011;12088;53.078;8.720;2024-02-21T10:19:16;28.03;;;14.53;;
23814;SDS011;12088;53.078;8.720;2024-02-21T10:21:42;29.37;;;15.50;;
23814;SDS011;12088;53.078;8.720;2024-02-21T10:24:08;29.10;;;14.30;;
23814;SDS011;12088;53.078;8.720;2024-02-21T10:26:35;28.03;;;15.50;;
23814;SDS011;12088;53.078;8.720;2024-02-21T10:29:02;28.87;;;15.43;;
23814;SDS011;12088;53.078;8.720;2024-02-21T10:31:28;23.83;;;13.47;;
23814;SDS011;12088;53.078;8.720;2024-02-21T10:36:20;27.13;;;14.43;;
23814;SDS011;12088;53.078;8.720;2024-02-21T10:38:46;30.63;;;14.30;;
23814;SDS011;12088;53.078;8.720;2024-02-21T10:41:13;30.23;;;14.97;;
23814;SDS011;12088;53.078;8.720;2024-02-21T10:43:42;24.40;;;14.27;;
23814;SDS011;12088;53.078;8.720;2024-02-21T10:46:11;24.40;;;14.37;;
23814;SDS011;12088;53.078;8.720;2024-02-21T10:48:41;24.47;;;14.13;;
23814;SDS011;12088;53.078;8.720;2024-02-21T10:51:14;26.20;;;13.83;;
23814;SDS011;12088;53.078;8.720;2024-02-21T10:58:36;24.17;;;13.43;;
23814;SDS011;12088;53.078;8.720;2024-02-21T11:01:03;25.13;;;13.37;;
23814;SDS011;12088;53.078;8.720;2024-02-21T11:03:30;21.03;;;12.40;;
23814;SDS011;12088;53.078;8.720;2024-02-21T11:05:57;24.27;;;13.07;;
23814;SDS011;12088;53.078;8.720;2024-02-21T11:08:23;22.10;;;13.70;;
23814;SDS011;12088;53.078;8.720;2024-02-21T11:10:56;20.87;;;11.83;;
23814;SDS011;12088;53.078;8.720;2024-02-21T11:13:30;18.97;;;11.60;;
23814;SDS011;12088;53.078;8.720;2024-02-21T11:16:05;18.33;;;10.80;;
23814;SDS011;12088;53.078;8.720;2024-02-21T11:18:31;19.67;;;11.70;;
23814;SDS011;12088;53.078;8.720;2024-02-21T11:20:57;17.20;;;10.63;;
23814;SDS011;12088;53.078;8.720;2024-02-21T11:23:26;18.93;;;10.00;;
23814;SDS011;12088;53.078;8.720;2024-02-21T11:26:03;19.03;;;10.37;;
23814;SDS011;12088;53.078;8.720;2024-02-21T11:28:30;21.07;;;10.00;;
23814;SDS011;12088;53.078;8.720;2024-02-21T11:31:06;17.93;;;9.73;;
23814;SDS011;12088;53.078;8.720;2024-02-21T11:33:32;17.20;;;9.97;;
23814;SDS011;12088;53.078;8.720;2024-02-21T11:35:58;16.00;;;10.50;;
23814;SDS011;12088;53.078;8.720;2024-02-21T11:38:24;16.53;;;9.20;;
23814;SDS011;12088;53.078;8.720;2024-02-21T11:40:50;14.03;;;9.43;;
23814;SDS011;12088;53.078;8.720;2024-02-21T11:43:25;17.87;;;9.33;;
23814;SDS011;12088;53.078;8.720;2024-02-21T11:46:00;15.43;;;9.07;;
23814;SDS011;12088;53.078;8.720;2024-02-21T11:48:28;18.93;;;8.30;;
23814;SDS011;12088;53.078;8.720;2024-02-21T11:50:55;13.87;;;8.93;;
23814;SDS011;12088;53.078;8.720;2024-02-21T11:53:21;15.00;;;9.70;;
23814;SDS011;12088;53.078;8.720;2024-02-21T11:55:47;16.03;;;8.27;;
23814;SDS011;12088;53.078;8.720;2024-02-21T11:58:13;15.10;;;9.10;;
23814;SDS011;12088;53.078;8.720;2024-02-21T12:00:42;16.83;;;8.77;;
23814;SDS011;12088;53.078;8.720;2024-02-21T12:03:11;17.17;;;9.30;;
23814;SDS011;12088;53.078;8.720;2024-02-21T12:05:37;20.40;;;7.50;;
23814;SDS011;12088;53.078;8.720;2024-02-21T12:08:06;15.23;;;7.33;;
23814;SDS011;12088;53.078;8.720;2024-02-21T12:10:32;12.97;;;7.30;;
23814;SDS011;12088;53.078;8.720;2024-02-21T12:13:05;11.37;;;7.17;;
23814;SDS011;12088;53.078;8.720;2024-02-21T12:15:32;12.20;;;6.67;;
23814;SDS011;12088;53.078;8.720;2024-02-21T12:17:58;15.77;;;7.27;;
23814;SDS011;12088;53.078;8.720;2024-02-21T12:20:25;12.90;;;6.63;;
23814;SDS011;12088;53.078;8.720;2024-02-21T12:22:51;13.13;;;6.57;;
23814;SDS011;12088;53.078;8.720;2024-02-21T12:25:19;11.07;;;6.60;;
23814;SDS011;12088;53.078;8.720;2024-02-21T12:27:47;13.20;;;6.67;;
23814;SDS011;12088;53.078;8.720;2024-02-21T12:30:14;13.00;;;6.67;;
23814;SDS011;12088;53.078;8.720;2024-02-21T12:32:40;9.47;;;6.57;;
23814;SDS011;12088;53.078;8.720;2024-02-21T12:35:06;13.13;;;6.30;;
23814;SDS011;12088;53.078;8.720;2024-02-21T12:37:32;12.60;;;6.27;;
23814;SDS011;12088;53.078;8.720;2024-02-21T12:39:58;13.40;;;6.27;;
23814;SDS011;12088;53.078;8.720;2024-02-21T12:42:25;15.20;;;6.77;;
23814;SDS011;12088;53.078;8.720;2024-02-21T12:44:51;10.57;;;6.00;;
23814;SDS011;12088;53.078;8.720;2024-02-21T12:47:18;10.80;;;5.50;;
23814;SDS011;12088;53.078;8.720;2024-02-21T12:49:44;9.90;;;5.57;;
23814;SDS011;12088;53.078;8.720;2024-02-21T12:52:10;9.63;;;5.13;;
23814;SDS011;12088;53.078;8.720;2024-02-21T12:54:38;11.43;;;5.40;;
23814;SDS011;12088;53.078;8.720;2024-02-21T12:57:04;10.77;;;5.23;;
23814;SDS011;12088;53.078;8.720;2024-02-21T12:59:30;13.23;;;4.90;;
23814;SDS011;12088;53.078;8.720;2024-02-21T13:01:56;9.80;;;4.67;;
23814;SDS011;12088;53.078;8.720;2024-02-21T13:04:22;13.63;;;4.87;;
23814;SDS011;12088;53.078;8.720;2024-02-21T13:06:49;10.97;;;5.17;;
23814;SDS011;12088;53.078;8.720;2024-02-21T13:09:15;8.50;;;4.60;;
23814;SDS011;12088;53.078;8.720;2024-02-21T13:11:41;9.47;;;4.87;;
23814;SDS011;12088;53.078;8.720;2024-02-21T13:14:09;11.53;;;5.40;;
23814;SDS011;12088;53.078;8.720;2024-02-21T13:16:35;9.77;;;5.80;;
23814;SDS011;12088;53.078;8.720;2024-02-21T13:19:07;11.63;;;5.30;;
23814;SDS011;12088;53.078;8.720;2024-02-21T13:21:34;12.27;;;5.60;;
23814;SDS011;12088;53.078;8.720;2024-02-21T13:24:00;11.10;;;5.73;;
23814;SDS011;12088;53.078;8.720;2024-02-21T13:26:26;11.33;;;5.97;;
23814;SDS011;12088;53.078;8.720;2024-02-21T13:28:52;9.50;;;5.97;;
23814;SDS011;12088;53.078;8.720;2024-02-21T13:31:18;12.00;;;6.67;;
23814;SDS011;12088;53.078;8.720;2024-02-21T13:33:44;12.77;;;7.00;;
23814;SDS011;12088;53.078;8.720;2024-02-21T13:36:10;8.87;;;7.17;;
23814;SDS011;12088;53.078;8.720;2024-02-21T13:38:36;12.37;;;8.33;;
23814;SDS011;12088;53.078;8.720;2024-02-21T13:41:03;12.93;;;8.00;;
23814;SDS011;12088;53.078;8.720;2024-02-21T13:43:29;11.10;;;8.57;;
23814;SDS011;12088;53.078;8.720;2024-02-21T13:45:56;12.10;;;8.80;;
23814;SDS011;12088;53.078;8.720;2024-02-21T13:48:26;13.93;;;9.90;;
23814;SDS011;12088;53.078;8.720;2024-02-21T13:50:53;13.03;;;9.57;;
23814;SDS011;12088;53.078;8.720;2024-02-21T13:53:19;14.13;;;9.60;;
23814;SDS011;12088;53.078;8.720;2024-02-21T13:55:46;12.87;;;9.70;;
23814;SDS011;12088;53.078;8.720;2024-02-21T13:58:12;12.87;;;10.03;;
23814;SDS011;12088;53.078;8.720;2024-02-21T14:00:39;12.80;;;9.27;;
23814;SDS011;12088;53.078;8.720;2024-02-21T14:03:05;14.57;;;9.37;;
23814;SDS011;12088;53.078;8.720;2024-02-21T14:05:31;13.23;;;9.23;;
23814;SDS011;12088;53.078;8.720;2024-02-21T14:07:57;13.13;;;8.63;;
23814;SDS011;12088;53.078;8.720;2024-02-21T14:10:23;13.70;;;9.37;;
23814;SDS011;12088;53.078;8.720;2024-02-21T14:12:49;13.67;;;9.00;;
23814;SDS011;12088;53.078;8.720;2024-02-21T14:15:15;13.87;;;9.03;;
23814;SDS011;12088;53.078;8.720;2024-02-21T14:17:41;14.50;;;9.10;;
23814;SDS011;12088;53.078;8.720;2024-02-21T14:20:07;14.80;;;8.87;;
23814;SDS011;12088;53.078;8.720;2024-02-21T14:22:34;13.23;;;8.67;;
23814;SDS011;12088;53.078;8.720;2024-02-21T14:25:02;13.40;;;9.17;;
23814;SDS011;12088;53.078;8.720;2024-02-21T14:27:30;11.67;;;8.00;;
23814;SDS011;12088;53.078;8.720;2024-02-21T14:29:56;13.27;;;8.73;;